Estación Meteorológica Peña el Pijo (Robertgarden) [ 11/12/18 21:29:14 CET ]

Fecha Hora Presion(HPa) Temp (°C) Humedad % Rocio (°C) Viento ( m/s) Direccion Lluvia 1Hora(mm) Lluvia 24H(mm) LLuvia Total(mm)
2018-Jul-09 01:01:33 1014.600 16.1 62 8.8         269.36
2018-Jul-09 02:01:19 1014.400 14.9 68 9.0         269.36
2018-Jul-09 03:01:41 1014.300 14.1 71 8.9         269.36
2018-Jul-09 04:01:42 1013.900 13.5 72 8.5         269.36
2018-Jul-09 05:03:36 1013.700 13.6 72 8.6         269.36
2018-Jul-09 06:01:38 1013.600 12.9 73 8.2         269.36
2018-Jul-09 07:01:47 1013.500 12.2 76 8.1         269.36
2018-Jul-09 08:01:41 1013.900 15.3 76 11.1         269.36
2018-Jul-09 09:01:56 1013.800 22.3 60 14.2         269.36
2018-Jul-09 10:01:53 1013.700 28.1 40 13.3         269.36
2018-Jul-09 11:01:47 1013.500 33.3 27 11.6         269.36
2018-Jul-09 12:01:38 1013.200 34.1 25 11.0         269.36
2018-Jul-09 13:01:45 1012.900 35.2 21 9.5         269.36
2018-Jul-09 14:01:54 1012.400 35.9 23 11.3         269.36
2018-Jul-09 15:01:48 1011.900 35.7 24 11.8         269.36
2018-Jul-09 16:01:49 1011.500 33.6 25 10.6         269.36
2018-Jul-09 17:01:44 1011.300 32.3 27 10.8         269.36
2018-Jul-09 18:01:44 1011.200 33.6 27 11.8         269.36
2018-Jul-09 19:01:59 1011.000 31.9 29 11.6         269.36
2018-Jul-09 20:01:35 1011.000 31.1 28 10.3         269.36
2018-Jul-09 21:01:56 1011.800 26.5 32 8.4         269.36
2018-Jul-09 22:01:52 1012.300 23.3 38 8.1         269.36
2018-Jul-09 23:01:43 1012.800 19.2 48 7.9         269.36

Temperatura Máxima:35°    Temperatura Mínima:12°
Presión Máxima:1014.600 Hpa    Presión Mínima:1011.000 Hpa


Volver